Time;durP1;ratioP1;P1;durP2;ratioP2;P2;SDS_P1;SDS_P2;PMS_P1;PMS_P2;Temp;Humidity;BMP_temperature;BMP_pressure;BME280_temperature;BME280_humidity;BME280_pressure;Samples;Min_cycle;Max_cycle;Signal;HPM_P1;HPM_P2
2022/09/21 00:04:46;;;;;;;1.80;0.90;;;;;;;15.44;44.38;101318.69;5075682;27;20411;-65
2022/09/21 00:07:12;;;;;;;1.58;1.20;;;;;;;15.41;44.40;101321.72;5078859;28;20457;-65
2022/09/21 00:09:37;;;;;;;2.03;1.00;;;;;;;15.41;44.54;101332.41;5066883;28;20835;-64
2022/09/21 00:12:03;;;;;;;2.03;1.10;;;;;;;15.42;44.46;101331.41;5066291;28;20376;-64
2022/09/21 00:14:30;;;;;;;2.53;1.30;;;;;;;15.37;44.74;101323.94;5066707;28;20384;-65
2022/09/21 00:16:55;;;;;;;2.75;1.33;;;;;;;15.39;44.50;101319.22;5066678;28;20384;-64
2022/09/21 00:21:18;;;;;;;3.10;1.40;;;;;;;15.39;44.71;101327.22;5098632;27;20772;-65
2022/09/21 00:23:44;;;;;;;2.63;1.38;;;;;;;15.38;44.73;101324.78;5073916;28;20469;-65
2022/09/21 00:26:13;;;;;;;3.03;1.20;;;;;;;15.36;45.02;101322.28;5071884;28;20471;-64
2022/09/21 00:28:39;;;;;;;2.38;1.25;;;;;;;15.27;45.02;101324.22;5087028;28;20393;-64
2022/09/21 00:31:18;;;;;;;2.97;1.30;;;;;;;15.24;45.13;101329.94;5066172;27;2093423;-65
2022/09/21 00:33:43;;;;;;;2.65;1.20;;;;;;;15.21;45.42;101324.13;5128206;28;20768;-63
2022/09/21 00:36:15;;;;;;;3.33;1.40;;;;;;;15.18;45.32;101317.34;5127727;28;20375;-64
2022/09/21 00:40:38;;;;;;;2.60;1.30;;;;;;;15.22;45.40;101315.13;5074681;27;20785;-65
2022/09/21 00:43:14;;;;;;;2.53;1.35;;;;;;;15.26;45.22;101324.41;5078113;28;20889;-64
2022/09/21 00:45:40;;;;;;;2.15;1.20;;;;;;;15.25;45.35;101318.25;5066703;28;20392;-65
2022/09/21 00:52:32;;;;;;;2.10;1.17;;;;;;;15.22;45.30;101310.59;5073721;27;20453;-65
2022/09/21 00:55:15;;;;;;;2.47;1.00;;;;;;;15.24;45.36;101305.91;5066565;28;20852;-65
2022/09/21 00:57:42;;;;;;;3.25;1.17;;;;;;;15.29;45.37;101300.00;5066558;28;20475;-65
2022/09/21 01:00:08;;;;;;;2.45;1.20;;;;;;;15.29;45.60;101297.34;5066808;28;20380;-65
2022/09/21 01:03:42;;;;;;;1.70;1.10;;;;;;;15.35;45.37;101301.91;5096314;27;20405;-66
2022/09/21 01:06:33;;;;;;;2.17;1.00;;;;;;;15.34;45.40;101286.06;5072263;27;20413;-64
2022/09/21 01:08:59;;;;;;;2.30;1.00;;;;;;;15.35;45.15;101285.91;5075543;28;20404;-64
2022/09/21 01:11:53;;;;;;;1.60;1.00;;;;;;;15.41;45.37;101295.84;5080495;28;20376;-64
2022/09/21 01:14:46;;;;;;;1.42;1.00;;;;;;;15.34;45.28;101286.06;5066704;28;20411;-64
2022/09/21 01:17:37;;;;;;;2.10;1.10;;;;;;;15.37;45.08;101299.06;5055310;28;20380;-65
2022/09/21 01:20:40;;;;;;;1.88;1.20;;;;;;;15.37;45.09;101304.41;5057732;28;20430;-66
2022/09/21 01:23:30;;;;;;;2.53;1.10;;;;;;;15.36;45.22;101294.72;5080516;28;20413;-64
2022/09/21 01:30:04;;;;;;;1.67;1.00;;;;;;;15.34;45.56;101305.63;5100996;27;20406;-64
2022/09/21 01:33:31;;;;;;;1.38;1.00;;;;;;;15.31;45.44;101294.47;5098189;27;20434;-65
2022/09/21 01:36:24;;;;;;;2.67;1.15;;;;;;;15.26;45.72;101287.03;5029944;28;20484;-64
2022/09/21 01:38:53;;;;;;;2.80;1.27;;;;;;;15.24;45.72;101289.88;5036160;28;20953;-64
2022/09/21 01:41:24;;;;;;;1.95;1.10;;;;;;;15.26;45.82;101293.19;5027079;28;20391;-64
2022/09/21 01:44:27;;;;;;;1.83;1.20;;;;;;;15.24;45.75;101300.56;5088891;27;20463;-64
2022/09/21 01:46:55;;;;;;;2.08;1.20;;;;;;;15.25;45.78;101296.88;5086990;28;20402;-65
2022/09/21 01:49:28;;;;;;;2.55;1.10;;;;;;;15.27;45.74;101299.38;5087054;28;20382;-64
2022/09/21 01:52:10;;;;;;;2.92;1.45;;;;;;;15.22;45.97;101297.25;5087031;28;20440;-64
2022/09/21 01:54:42;;;;;;;3.50;1.30;;;;;;;15.26;45.88;101305.72;5085897;28;20483;-65
2022/09/21 01:57:18;;;;;;;2.35;1.20;;;;;;;15.26;45.79;101308.38;5066443;28;20400;-65
2022/09/21 01:59:59;;;;;;;1.15;0.90;;;;;;;15.25;45.77;101306.72;5080977;28;20390;-64
2022/09/21 02:03:01;;;;;;;1.77;1.10;;;;;;;15.25;45.97;101304.03;5086816;28;20413;-64
2022/09/21 02:05:29;;;;;;;2.15;1.17;;;;;;;15.23;45.80;101292.72;5064194;28;20406;-65
2022/09/21 02:10:01;;;;;;;1.50;0.93;;;;;;;15.26;45.96;101303.03;5089403;27;20424;-64
2022/09/21 02:14:46;;;;;;;1.83;0.93;;;;;;;15.24;45.75;101316.59;5053291;28;20414;-64
2022/09/21 02:19:47;;;;;;;1.50;0.80;;;;;;;15.29;45.62;101314.19;5097563;27;20406;-64
2022/09/21 02:22:28;;;;;;;1.45;0.93;;;;;;;15.26;45.51;101311.88;5067714;28;20415;-65
2022/09/21 02:25:03;;;;;;;3.28;1.08;;;;;;;15.21;45.78;101310.78;5078442;28;20386;-64
2022/09/21 02:35:27;;;;;;;3.55;1.15;;;;;;;15.15;45.68;101316.88;5086433;27;20402;-64
2022/09/21 02:37:56;;;;;;;1.80;1.00;;;;;;;15.12;45.56;101311.91;5063639;28;20403;-65
2022/09/21 02:40:39;;;;;;;2.42;0.90;;;;;;;15.13;45.86;101311.72;5065416;28;20443;-64
2022/09/21 02:43:19;;;;;;;2.67;0.98;;;;;;;15.12;45.89;101318.06;5066014;28;20392;-65
2022/09/21 02:47:46;;;;;;;1.73;0.80;;;;;;;15.13;45.71;101318.91;5086581;27;20405;-64
2022/09/21 02:51:32;;;;;;;1.15;0.90;;;;;;;15.07;46.01;101313.28;5048094;28;20474;-64
2022/09/21 02:54:02;;;;;;;3.33;1.00;;;;;;;15.06;46.11;101313.47;5044597;28;20956;-65
2022/09/21 02:56:30;;;;;;;2.28;1.10;;;;;;;15.08;46.07;101314.09;5045732;28;20381;-64
2022/09/21 03:01:19;;;;;;;1.23;0.90;;;;;;;15.05;45.91;101322.47;5086705;27;20406;-65
2022/09/21 03:03:45;;;;;;;2.22;1.02;;;;;;;15.05;45.96;101314.47;5084295;28;20512;-65
2022/09/21 03:08:02;;;;;;;1.50;0.82;;;;;;;14.98;46.06;101308.22;5059278;28;20410;-65
2022/09/21 03:11:49;;;;;;;4.25;1.08;;;;;;;15.00;46.34;101316.84;5046709;28;20460;-66
2022/09/21 03:14:16;;;;;;;2.80;1.13;;;;;;;14.96;46.38;101320.91;5042733;28;20511;-65
2022/09/21 03:16:41;;;;;;;2.40;1.10;;;;;;;14.96;46.38;101315.59;5043963;28;20385;-65
2022/09/21 03:21:13;;;;;;;1.70;0.90;;;;;;;14.95;46.36;101316.63;5059901;27;2050155;-65
2022/09/21 03:25:30;;;;;;;2.15;1.00;;;;;;;14.94;46.34;101307.75;5046496;28;20413;-65
2022/09/21 03:27:56;;;;;;;1.50;1.05;;;;;;;14.93;46.35;101311.44;5043198;28;20409;-65
2022/09/21 03:32:55;;;;;;;2.53;1.08;;;;;;;14.91;46.32;101313.47;5086851;27;20459;-65
2022/09/21 03:35:22;;;;;;;2.50;0.90;;;;;;;14.89;46.50;101311.00;5084480;28;20414;-65
2022/09/21 03:39:22;;;;;;;1.80;0.93;;;;;;;14.85;46.56;101312.34;5084116;27;20811;-65
2022/09/21 03:41:47;;;;;;;3.00;1.48;;;;;;;14.82;46.55;101311.88;5083333;28;20407;-66
2022/09/21 03:44:15;;;;;;;1.70;0.90;;;;;;;14.77;46.87;101311.63;5070638;28;20386;-66
2022/09/21 03:46:40;;;;;;;4.20;1.00;;;;;;;14.75;46.72;101316.28;5081401;28;20768;-65
2022/09/21 03:49:06;;;;;;;2.73;1.10;;;;;;;14.76;46.96;101312.63;5073160;28;20394;-64
2022/09/21 03:51:31;;;;;;;1.70;1.00;;;;;;;14.81;46.92;101319.06;5077363;28;20915;-65
2022/09/21 03:53:57;;;;;;;1.70;1.10;;;;;;;14.81;46.79;101328.94;5066892;28;20626;-65
2022/09/21 03:56:22;;;;;;;3.08;1.30;;;;;;;14.76;46.81;101315.31;5069560;28;20443;-65
2022/09/21 03:58:48;;;;;;;2.87;1.83;;;;;;;14.74;46.87;101325.34;5068774;28;20444;-65
2022/09/21 04:01:14;;;;;;;3.00;1.60;;;;;;;14.69;46.90;101326.72;5071755;28;20386;-64
2022/09/21 04:03:39;;;;;;;3.55;1.40;;;;;;;14.66;47.29;101326.25;5082197;28;20835;-65
2022/09/21 04:06:09;;;;;;;3.50;1.53;;;;;;;14.62;47.17;101320.44;5079574;28;20386;-64
2022/09/21 04:08:34;;;;;;;3.10;1.45;;;;;;;14.61;47.30;101324.13;5076047;28;20390;-65
2022/09/21 04:11:01;;;;;;;2.53;1.20;;;;;;;14.60;47.41;101321.63;5067468;28;20872;-65
2022/09/21 04:13:26;;;;;;;2.28;1.20;;;;;;;14.60;47.20;101329.63;5066427;28;20427;-65
2022/09/21 04:15:52;;;;;;;2.85;1.48;;;;;;;14.64;47.22;101336.25;5076599;28;20899;-64
2022/09/21 04:18:18;;;;;;;3.17;1.40;;;;;;;14.63;47.20;101342.63;5071632;28;20406;-64
2022/09/21 04:20:44;;;;;;;2.53;1.42;;;;;;;14.62;47.26;101343.63;5065301;28;20391;-64
2022/09/21 04:23:09;;;;;;;3.20;1.43;;;;;;;14.67;47.43;101346.56;5063448;28;20437;-65
2022/09/21 04:25:35;;;;;;;3.30;1.40;;;;;;;14.68;47.21;101341.06;5065095;28;20399;-65
2022/09/21 04:28:01;;;;;;;2.30;1.67;;;;;;;14.75;47.33;101356.31;5065548;28;20376;-64
2022/09/21 04:30:26;;;;;;;2.63;1.30;;;;;;;14.77;47.14;101357.00;5063805;28;20881;-65
2022/09/21 04:32:52;;;;;;;3.88;1.73;;;;;;;14.77;47.02;101357.00;5064135;28;20391;-67
2022/09/21 04:35:17;;;;;;;4.23;2.13;;;;;;;14.74;47.26;101352.03;5063816;28;20384;-65
2022/09/21 04:37:43;;;;;;;3.83;1.80;;;;;;;14.73;47.03;101345.88;5050454;28;20474;-65
2022/09/21 04:40:08;;;;;;;4.20;1.90;;;;;;;14.86;46.89;101354.06;5065129;28;20395;-65
2022/09/21 04:42:34;;;;;;;3.67;1.77;;;;;;;14.96;46.84;101363.63;5063880;28;20396;-65
2022/09/21 04:44:59;;;;;;;3.97;1.77;;;;;;;14.92;46.54;101360.50;5064977;28;20396;-65
2022/09/21 04:47:25;;;;;;;4.27;1.70;;;;;;;14.96;46.62;101366.31;5063687;28;20388;-65
2022/09/21 04:49:51;;;;;;;4.27;2.20;;;;;;;14.98;46.52;101356.25;5055805;28;20396;-64
2022/09/21 04:52:17;;;;;;;2.72;1.70;;;;;;;15.06;46.38;101366.88;5050965;28;20762;-65
2022/09/21 04:54:43;;;;;;;2.17;1.60;;;;;;;15.05;46.56;101365.19;5043537;28;20383;-65
2022/09/21 04:57:08;;;;;;;5.30;1.95;;;;;;;15.21;46.47;101375.69;5047239;28;20886;-65
2022/09/21 04:59:34;;;;;;;4.77;1.97;;;;;;;15.31;46.21;101364.75;5051708;28;20503;-65
2022/09/21 05:01:59;;;;;;;3.53;1.70;;;;;;;15.78;45.19;101362.69;5051200;28;20790;-65
2022/09/21 05:04:24;;;;;;;6.00;2.10;;;;;;;16.28;44.39;101355.59;5046434;28;20410;-66
2022/09/21 05:06:50;;;;;;;2.73;1.57;;;;;;;16.72;43.61;101357.16;5041530;28;20401;-66
2022/09/21 05:12:00;;;;;;;4.05;1.80;;;;;;;17.55;41.91;101362.59;5050944;28;20908;-65
2022/09/21 05:14:25;;;;;;;2.83;1.70;;;;;;;17.91;41.10;101347.28;5051117;28;20460;-65
2022/09/21 05:16:50;;;;;;;4.97;1.73;;;;;;;18.28;40.46;101348.56;5051506;28;20392;-65
2022/09/21 05:19:16;;;;;;;5.30;1.70;;;;;;;18.64;39.74;101354.56;5051221;28;20470;-65
2022/09/21 05:21:42;;;;;;;2.70;1.60;;;;;;;18.92;39.29;101351.66;5051700;28;20431;-66
2022/09/21 05:24:08;;;;;;;3.42;1.70;;;;;;;18.86;39.34;101347.13;5051667;28;20377;-66
2022/09/21 05:26:34;;;;;;;5.22;1.80;;;;;;;19.27;38.27;101349.50;5037534;28;20451;-65
2022/09/21 05:28:59;;;;;;;4.57;1.63;;;;;;;19.79;37.67;101354.03;5051470;28;20388;-67
2022/09/21 05:35:25;;;;;;;3.40;1.98;;;;;;;20.50;36.33;101338.66;5071857;27;20473;-66
2022/09/21 05:38:23;;;;;;;6.72;1.80;;;;;;;20.81;35.65;101345.84;5063845;28;20915;-66
2022/09/21 05:40:49;;;;;;;5.10;2.35;;;;;;;21.24;35.05;101349.53;5042601;28;20454;-67
2022/09/21 05:43:15;;;;;;;4.30;2.58;;;;;;;21.79;34.20;101340.53;5059582;28;20903;-66
2022/09/21 05:45:56;;;;;;;4.15;2.50;;;;;;;21.80;33.87;101344.91;5060308;28;20385;-66
2022/09/21 05:48:38;;;;;;;3.67;2.20;;;;;;;22.17;33.26;101336.69;5059674;28;21223;-66
2022/09/21 05:51:45;;;;;;;4.35;2.50;;;;;;;22.83;32.41;101349.09;5060904;28;20389;-66
2022/09/21 05:54:16;;;;;;;2.92;1.90;;;;;;;22.88;31.87;101343.75;5057261;28;20412;-66
2022/09/21 05:56:59;;;;;;;3.78;2.10;;;;;;;23.20;31.89;101348.00;5060520;28;20400;-66
2022/09/21 06:00:05;;;;;;;1.90;1.70;;;;;;;23.40;31.33;101351.09;5057478;28;20384;-66
2022/09/21 06:03:48;;;;;;;3.58;1.88;;;;;;;22.60;32.13;101347.19;5084697;27;20423;-66
2022/09/21 06:06:16;;;;;;;3.65;1.77;;;;;;;22.10;32.92;101351.09;5061207;28;20402;-66
2022/09/21 06:08:41;;;;;;;3.17;1.75;;;;;;;22.80;32.27;101349.53;5066452;28;20388;-66
2022/09/21 06:11:07;;;;;;;2.35;1.70;;;;;;;23.61;30.88;101338.78;5062935;28;20431;-67
2022/09/21 06:13:32;;;;;;;2.33;1.60;;;;;;;24.07;30.09;101346.94;5064890;28;20383;-66
2022/09/21 06:16:02;;;;;;;4.07;1.50;;;;;;;24.58;29.33;101338.84;5064651;28;20388;-67
2022/09/21 06:18:27;;;;;;;2.83;1.73;;;;;;;25.36;28.37;101334.19;5064226;28;20380;-66
2022/09/21 06:20:53;;;;;;;1.95;1.40;;;;;;;26.39;27.02;101337.88;5065682;28;20388;-65
2022/09/21 06:23:18;;;;;;;6.53;1.60;;;;;;;27.34;25.58;101337.09;5064749;28;20757;-67
2022/09/21 06:25:49;;;;;;;1.75;1.42;;;;;;;28.61;24.24;101337.47;5064136;28;20382;-66
2022/09/21 06:28:14;;;;;;;3.35;1.50;;;;;;;29.69;22.70;101328.81;5066239;28;20415;-66
2022/09/21 06:30:41;;;;;;;3.10;1.40;;;;;;;30.11;22.46;101344.66;5064329;28;20416;-66
2022/09/21 06:33:07;;;;;;;2.47;1.40;;;;;;;29.54;22.48;101346.13;5065959;28;20376;-65
2022/09/21 06:35:35;;;;;;;2.05;1.55;;;;;;;27.33;24.85;101350.97;5066029;28;20380;-66
2022/09/21 06:38:06;;;;;;;2.13;1.47;;;;;;;25.92;26.68;101347.53;5058674;28;20389;-66
2022/09/21 06:40:33;;;;;;;3.13;1.50;;;;;;;25.11;27.68;101348.25;5049833;28;20376;-66
2022/09/21 06:43:01;;;;;;;2.95;1.60;;;;;;;24.61;28.33;101352.72;5054631;28;20448;-66
2022/09/21 06:45:28;;;;;;;2.80;1.60;;;;;;;24.22;28.83;101366.16;5063079;28;20415;-69
2022/09/21 06:48:55;;;;;;;3.15;1.80;;;;;;;23.77;29.45;101366.97;5087616;27;20421;-66
2022/09/21 06:51:20;;;;;;;5.67;1.80;;;;;;;24.58;28.72;101357.84;5085561;28;20410;-66
2022/09/21 06:53:46;;;;;;;3.35;1.60;;;;;;;24.45;28.73;101363.53;5085789;28;20374;-66
2022/09/21 06:56:12;;;;;;;4.28;1.70;;;;;;;24.96;28.12;101365.16;5085746;28;20382;-66
2022/09/21 06:58:38;;;;;;;4.63;1.90;;;;;;;24.32;28.86;101359.28;5067008;28;20760;-66
2022/09/21 07:01:09;;;;;;;4.47;2.50;;;;;;;23.57;29.98;101367.41;5066344;28;20757;-66
2022/09/21 07:03:35;;;;;;;3.50;2.00;;;;;;;23.12;30.69;101369.97;5086058;28;20382;-66
2022/09/21 07:06:00;;;;;;;3.80;1.90;;;;;;;23.29;30.46;101368.19;5074819;28;20762;-65
2022/09/21 07:08:26;;;;;;;4.00;1.90;;;;;;;23.71;30.44;101367.94;5065906;28;20412;-66
2022/09/21 07:10:52;;;;;;;2.65;1.75;;;;;;;24.07;29.66;101368.59;5075858;28;20378;-66
2022/09/21 07:13:17;;;;;;;1.70;1.58;;;;;;;24.41;28.90;101368.63;5084345;28;20963;-65
2022/09/21 07:15:43;;;;;;;1.83;1.60;;;;;;;24.69;28.65;101359.63;5066169;28;20766;-66
2022/09/21 07:18:12;;;;;;;3.03;1.85;;;;;;;24.47;28.93;101367.66;5066181;28;20391;-65
2022/09/21 07:20:39;;;;;;;3.80;2.08;;;;;;;24.76;28.73;101373.81;5066192;28;20754;-66
2022/09/21 07:23:15;;;;;;;3.30;1.67;;;;;;;24.92;27.79;101372.16;5066226;28;20383;-65
2022/09/21 07:27:24;;;;;;;3.00;2.13;;;;;;;25.11;27.70;101374.56;5094744;27;20461;-66
2022/09/21 07:29:49;;;;;;;5.65;2.35;;;;;;;25.27;27.53;101371.00;5066561;28;20443;-65
2022/09/21 07:32:15;;;;;;;2.93;2.30;;;;;;;25.38;27.37;101375.47;5066505;28;20477;-66
2022/09/21 07:34:41;;;;;;;3.75;2.30;;;;;;;25.29;27.29;101365.31;5066632;28;20445;-65
2022/09/21 07:37:06;;;;;;;3.30;2.50;;;;;;;25.28;27.57;101369.94;5066709;28;20785;-65
2022/09/21 07:39:32;;;;;;;3.10;2.30;;;;;;;25.48;27.30;101369.34;5066303;28;20394;-65
2022/09/21 07:41:57;;;;;;;3.07;2.20;;;;;;;25.46;27.11;101373.38;5066111;28;20390;-66
2022/09/21 07:44:23;;;;;;;2.58;2.38;;;;;;;25.50;27.34;101369.09;5066232;28;20407;-65
2022/09/21 07:46:49;;;;;;;6.18;2.90;;;;;;;24.94;27.68;101380.03;5066254;28;20412;-65
2022/09/21 07:49:14;;;;;;;4.23;2.40;;;;;;;24.59;28.13;101379.25;5066499;28;20442;-66
2022/09/21 07:51:40;;;;;;;4.07;2.30;;;;;;;24.46;28.37;101381.47;5052377;28;20460;-65
2022/09/21 07:54:08;;;;;;;3.00;2.70;;;;;;;24.57;28.02;101378.69;5064651;28;22293;-65
2022/09/21 07:56:35;;;;;;;6.15;3.50;;;;;;;24.22;28.62;101395.97;5065632;28;20475;-65
2022/09/21 07:59:04;;;;;;;3.08;2.53;;;;;;;24.38;28.56;101383.50;5065283;28;20405;-66
2022/09/21 08:01:32;;;;;;;3.75;2.67;;;;;;;24.60;28.15;101370.06;5063298;28;20929;-66
2022/09/21 08:03:59;;;;;;;2.67;1.90;;;;;;;24.70;27.99;101382.13;5065706;28;20392;-66
2022/09/21 08:06:28;;;;;;;3.92;2.28;;;;;;;24.47;28.42;101385.78;5064874;28;20469;-66
2022/09/21 08:08:53;;;;;;;3.03;2.33;;;;;;;24.22;28.84;101378.91;5065335;28;20402;-66
2022/09/21 08:11:24;;;;;;;2.33;2.13;;;;;;;24.23;28.97;101386.75;5065156;28;20761;-66
2022/09/21 08:13:55;;;;;;;4.22;2.50;;;;;;;24.21;28.97;101382.66;5061088;28;20395;-66
2022/09/21 08:16:21;;;;;;;4.82;2.40;;;;;;;24.24;28.85;101384.91;5065540;28;20382;-66
2022/09/21 08:18:47;;;;;;;4.27;2.50;;;;;;;24.18;28.56;101383.16;5062258;28;20376;-66
2022/09/21 08:21:12;;;;;;;4.65;2.47;;;;;;;24.23;28.63;101388.66;5064090;28;20384;-66
2022/09/21 08:23:41;;;;;;;4.33;2.20;;;;;;;24.08;28.43;101389.22;5064845;28;20383;-66
2022/09/21 08:26:10;;;;;;;2.40;2.00;;;;;;;24.06;28.29;101391.34;5064602;28;20462;-66
2022/09/21 08:28:35;;;;;;;5.45;2.10;;;;;;;24.10;27.82;101397.91;5063600;28;20423;-66
2022/09/21 08:31:09;;;;;;;1.65;1.42;;;;;;;24.10;27.52;101388.97;5064644;28;20404;-67
2022/09/21 08:33:35;;;;;;;3.10;1.80;;;;;;;23.82;27.82;101396.88;5064438;28;20380;-66
2022/09/21 08:36:02;;;;;;;3.45;1.40;;;;;;;23.66;27.52;101403.84;5064487;28;20637;-66
2022/09/21 08:38:33;;;;;;;3.40;1.70;;;;;;;23.51;27.47;101394.59;5052983;28;20399;-65
2022/09/21 08:41:00;;;;;;;1.92;1.60;;;;;;;23.32;27.80;101389.38;5051001;28;20449;-65
2022/09/21 08:43:34;;;;;;;3.58;2.20;;;;;;;23.45;28.08;101394.50;5051365;28;20428;-66
2022/09/21 08:46:04;;;;;;;2.40;1.50;;;;;;;23.37;27.50;101389.47;5049745;28;20416;-65
2022/09/21 08:48:36;;;;;;;4.18;2.50;;;;;;;23.30;27.52;101407.72;5048398;28;20763;-65
2022/09/21 08:51:07;;;;;;;2.00;1.70;;;;;;;23.28;27.77;101397.13;5049468;28;20909;-65
2022/09/21 08:53:34;;;;;;;3.88;1.90;;;;;;;23.55;27.46;101393.91;5065425;28;20458;-66
2022/09/21 08:57:46;;;;;;;3.72;1.20;;;;;;;23.79;26.78;101394.63;5076839;27;20398;-65
2022/09/21 09:00:20;;;;;;;11.00;2.00;;;;;;;23.81;26.61;101392.53;5086789;28;20397;-65
2022/09/21 09:03:19;;;;;;;3.20;1.52;;;;;;;23.79;26.77;101391.09;5083667;28;20478;-65
2022/09/21 09:06:00;;;;;;;3.70;1.95;;;;;;;23.76;27.14;101392.38;5069182;28;20445;-66
2022/09/21 09:08:40;;;;;;;2.53;1.90;;;;;;;23.56;27.81;101390.13;5075713;28;20385;-65
2022/09/21 09:11:15;;;;;;;2.85;2.00;;;;;;;23.47;28.29;101386.97;5072747;28;20396;-65
2022/09/21 09:13:41;;;;;;;2.17;1.98;;;;;;;23.32;28.49;101397.47;5083534;28;20393;-66
2022/09/21 09:16:14;;;;;;;3.43;2.13;;;;;;;22.91;29.19;101383.84;5074762;28;20414;-66
2022/09/21 09:18:51;;;;;;;4.10;2.25;;;;;;;22.90;29.27;101387.63;5083494;28;20390;-65
2022/09/21 09:21:40;;;;;;;3.23;1.90;;;;;;;22.65;29.34;101377.06;5069031;28;20387;-65
2022/09/21 09:24:16;;;;;;;2.85;2.08;;;;;;;22.54;28.98;101372.44;5073689;28;20425;-65
2022/09/21 09:26:48;;;;;;;3.47;2.00;;;;;;;22.35;29.50;101373.63;5085591;28;20382;-65
2022/09/21 09:29:20;;;;;;;4.00;1.60;;;;;;;22.12;29.59;101367.88;5084153;28;20425;-65
2022/09/21 09:31:47;;;;;;;2.90;1.40;;;;;;;22.09;29.66;101379.16;5067918;28;20395;-65
2022/09/21 09:34:32;;;;;;;2.77;1.30;;;;;;;22.11;30.13;101368.94;5080020;28;20382;-65
2022/09/21 09:37:12;;;;;;;3.45;1.60;;;;;;;22.14;30.20;101357.66;5069803;28;20429;-64
2022/09/21 09:39:41;;;;;;;1.48;1.30;;;;;;;22.33;30.21;101357.63;5071979;28;20387;-67
2022/09/21 09:42:39;;;;;;;2.00;1.60;;;;;;;22.45;30.38;101355.75;5077932;28;20721;-64
2022/09/21 09:45:10;;;;;;;3.30;1.80;;;;;;;22.28;30.53;101362.91;5078168;28;20424;-64
2022/09/21 09:47:45;;;;;;;2.60;1.50;;;;;;;22.18;30.38;101366.13;5067742;28;20376;-64
2022/09/21 09:50:25;;;;;;;1.92;1.10;;;;;;;21.93;30.20;101350.94;5079525;28;20485;-65
2022/09/21 09:52:55;;;;;;;2.90;1.00;;;;;;;22.04;30.12;101352.03;5075738;28;20424;-64
2022/09/21 09:55:24;;;;;;;2.28;1.30;;;;;;;22.11;29.85;101350.06;5081929;28;20388;-64
2022/09/21 09:57:53;;;;;;;2.00;1.20;;;;;;;22.18;30.01;101352.63;5068864;28;20376;-64
2022/09/21 10:00:20;;;;;;;1.80;1.30;;;;;;;22.12;30.21;101359.78;5079430;28;20481;-64
2022/09/21 10:02:54;;;;;;;1.88;1.13;;;;;;;22.13;29.96;101341.72;5079698;28;20388;-64
2022/09/21 10:05:22;;;;;;;4.10;2.42;;;;;;;22.21;29.85;101340.56;5079526;28;20394;-64
2022/09/21 10:07:48;;;;;;;1.83;1.63;;;;;;;22.17;29.90;101332.09;5073216;28;20743;-65
2022/09/21 10:10:34;;;;;;;2.25;1.80;;;;;;;22.18;30.07;101344.53;5065324;28;20749;-64
2022/09/21 10:13:21;;;;;;;2.30;1.80;;;;;;;22.28;29.79;101334.00;5065980;28;20408;-64
2022/09/21 10:15:54;;;;;;;2.13;1.58;;;;;;;22.42;29.39;101331.94;5065891;28;20404;-64
2022/09/21 10:18:22;;;;;;;3.22;1.58;;;;;;;22.57;29.38;101330.63;5064929;28;20385;-65
2022/09/21 10:21:05;;;;;;;2.40;1.50;;;;;;;22.73;28.75;101334.50;5065648;28;20387;-64
2022/09/21 10:23:32;;;;;;;1.90;1.60;;;;;;;22.72;28.86;101322.88;5055010;28;20388;-65
2022/09/21 10:26:05;;;;;;;2.17;1.60;;;;;;;22.76;28.80;101328.63;5066104;28;20459;-64
2022/09/21 10:28:31;;;;;;;2.70;1.87;;;;;;;22.86;28.86;101326.16;5054893;28;20380;-64
2022/09/21 10:31:16;;;;;;;3.88;1.70;;;;;;;22.90;29.03;101332.72;5065641;28;20391;-65
2022/09/21 10:34:15;;;;;;;1.35;1.17;;;;;;;22.77;28.63;101311.34;5054605;28;20456;-64
2022/09/21 10:36:50;;;;;;;2.30;1.23;;;;;;;22.71;28.69;101311.22;5043155;28;20422;-65
2022/09/21 10:39:24;;;;;;;2.25;1.90;;;;;;;22.70;28.74;101325.78;5060021;28;20996;-65
2022/09/21 10:41:56;;;;;;;1.60;1.50;;;;;;;22.56;28.71;101321.69;5065472;28;20391;-64
2022/09/21 10:46:50;;;;;;;3.17;2.20;;;;;;;22.68;28.75;101324.41;5078407;27;20481;-65
2022/09/21 10:49:23;;;;;;;2.80;2.33;;;;;;;22.75;29.16;101327.00;5066686;28;20392;-65
2022/09/21 10:51:52;;;;;;;3.53;2.47;;;;;;;22.76;29.43;101320.50;5066425;28;20905;-66
2022/09/21 10:54:23;;;;;;;4.47;2.70;;;;;;;22.74;29.32;101315.34;5066253;28;20388;-68
2022/09/21 10:57:06;;;;;;;3.92;2.50;;;;;;;22.79;29.24;101304.63;5066481;28;21432;-65
2022/09/21 10:59:35;;;;;;;3.03;2.28;;;;;;;22.82;29.01;101314.19;5052903;28;20384;-65
2022/09/21 11:02:21;;;;;;;3.90;2.28;;;;;;;22.75;29.10;101305.38;5066317;28;20396;-65
2022/09/21 11:04:52;;;;;;;2.88;2.15;;;;;;;22.59;28.81;101302.31;5053934;28;20473;-65
2022/09/21 11:07:27;;;;;;;3.40;2.07;;;;;;;22.64;28.99;101297.03;5066269;28;20376;-65
2022/09/21 11:09:58;;;;;;;4.17;2.30;;;;;;;22.75;28.91;101306.19;5066395;28;20396;-70
2022/09/21 11:12:30;;;;;;;3.90;1.87;;;;;;;22.83;28.47;101313.09;5067758;28;20901;-64
2022/09/21 11:15:10;;;;;;;2.30;2.00;;;;;;;22.68;28.64;101297.38;5071869;28;20378;-65
2022/09/21 11:17:42;;;;;;;2.42;2.22;;;;;;;22.67;28.88;101303.81;5074387;28;20412;-65
2022/09/21 11:20:38;;;;;;;2.00;1.90;;;;;;;22.76;28.74;101307.00;5072886;28;20384;-65
2022/09/21 11:23:32;;;;;;;2.30;2.00;;;;;;;22.79;28.90;101311.94;5038897;28;20407;-66
2022/09/21 11:26:26;;;;;;;3.42;2.28;;;;;;;22.74;28.84;101303.72;5055725;28;20414;-65
2022/09/21 11:29:14;;;;;;;2.15;1.80;;;;;;;22.68;28.75;101313.59;5061172;28;20472;-65
2022/09/21 11:32:01;;;;;;;3.70;2.45;;;;;;;22.77;28.54;101297.84;5065894;28;20548;-65
2022/09/21 11:34:55;;;;;;;3.70;2.10;;;;;;;22.82;29.05;101309.56;5075548;28;20802;-65
2022/09/21 11:38:03;;;;;;;2.15;1.80;;;;;;;22.93;29.43;101305.22;5073968;27;20992;-65
2022/09/21 11:41:16;;;;;;;3.95;1.95;;;;;;;22.93;29.25;101299.00;5055073;28;20398;-65
2022/09/21 11:44:08;;;;;;;2.80;1.70;;;;;;;23.02;28.29;101301.06;4994971;28;20433;-65
2022/09/21 11:46:55;;;;;;;2.92;1.65;;;;;;;23.13;28.56;101304.03;5046565;28;20780;-65
2022/09/21 11:49:36;;;;;;;2.42;1.70;;;;;;;23.19;28.46;101293.09;5049301;28;20480;-65
2022/09/21 11:52:10;;;;;;;1.90;1.70;;;;;;;23.04;29.05;101290.88;5059054;28;20400;-65
2022/09/21 11:54:55;;;;;;;2.40;1.45;;;;;;;23.02;28.77;101301.06;5050273;28;20389;-65
2022/09/21 11:57:28;;;;;;;1.92;1.20;;;;;;;22.89;28.80;101295.94;5041747;28;20409;-64
2022/09/21 12:00:14;;;;;;;2.30;1.50;;;;;;;22.87;29.14;101296.19;5046771;28;20493;-65
2022/09/21 12:03:03;;;;;;;1.80;1.70;;;;;;;23.06;29.06;101298.75;5045112;28;20760;-65
2022/09/21 12:05:46;;;;;;;1.70;1.23;;;;;;;23.12;28.86;101294.25;5048554;28;20436;-64
2022/09/21 12:08:45;;;;;;;3.05;1.98;;;;;;;23.23;28.75;101290.72;5043256;28;20408;-64
2022/09/21 12:11:28;;;;;;;2.50;1.40;;;;;;;23.26;28.76;101288.34;5045068;28;20385;-65
2022/09/21 12:14:06;;;;;;;1.95;1.35;;;;;;;23.34;28.73;101289.84;5045025;28;20764;-64
2022/09/21 12:16:43;;;;;;;2.67;1.63;;;;;;;23.24;28.64;101295.88;5034253;28;20460;-65
2022/09/21 12:19:14;;;;;;;3.22;1.90;;;;;;;23.20;29.07;101296.59;5045108;28;20390;-65
2022/09/21 12:21:44;;;;;;;2.20;1.90;;;;;;;22.98;29.29;101289.09;5076287;28;20389;-64
2022/09/21 12:24:50;;;;;;;3.28;1.98;;;;;;;23.13;28.97;101296.72;5045434;28;20831;-64
2022/09/21 12:27:43;;;;;;;2.28;1.98;;;;;;;23.15;28.72;101297.31;5001979;28;21072;-65
2022/09/21 12:30:18;;;;;;;2.77;1.90;;;;;;;23.14;28.91;101300.25;5041991;28;20903;-64
2022/09/21 12:32:52;;;;;;;1.80;1.70;;;;;;;22.95;28.91;101304.97;5041578;28;20394;-64
2022/09/21 12:35:33;;;;;;;2.67;2.00;;;;;;;22.84;29.08;101291.25;5040581;28;20402;-63
2022/09/21 12:38:08;;;;;;;2.20;1.73;;;;;;;22.87;29.38;101290.78;5041982;28;20816;-65
2022/09/21 12:41:08;;;;;;;2.25;1.60;;;;;;;22.89;28.93;101283.25;5041945;28;20444;-63
2022/09/21 12:43:49;;;;;;;1.80;1.60;;;;;;;22.85;29.18;101276.69;5041834;28;20412;-63
2022/09/21 12:46:22;;;;;;;2.70;1.52;;;;;;;22.85;29.11;101276.69;5045374;28;20477;-64
2022/09/21 12:48:48;;;;;;;3.60;1.77;;;;;;;22.91;29.11;101283.00;5056282;28;20440;-64
2022/09/21 12:51:35;;;;;;;3.03;1.77;;;;;;;22.75;28.89;101287.25;5031449;28;20956;-64
2022/09/21 12:54:15;;;;;;;2.70;1.73;;;;;;;22.72;28.93;101285.03;5031663;28;20457;-63